createdAt,value
2022-12-18T00:00:22.420Z,0
2022-12-18T00:00:55.960Z,0
2022-12-18T00:01:24.478Z,0
2022-12-18T00:01:57.216Z,0
2022-12-18T00:02:28.537Z,0
2022-12-18T00:03:01.365Z,0
2022-12-18T00:03:32.445Z,0
2022-12-18T00:04:05.425Z,0
2022-12-18T00:04:36.475Z,0
2022-12-18T00:05:09.441Z,0
2022-12-18T00:05:40.483Z,0
2022-12-18T00:06:13.249Z,0
2022-12-18T00:06:44.617Z,0
2022-12-18T00:07:17.407Z,0
2022-12-18T00:07:48.551Z,0
2022-12-18T00:08:21.512Z,0
2022-12-18T00:08:52.416Z,0
2022-12-18T00:09:25.218Z,0
2022-12-18T00:09:56.572Z,0
2022-12-18T00:10:29.511Z,0
2022-12-18T00:11:00.493Z,0
2022-12-18T00:11:33.437Z,0
2022-12-18T00:12:37.333Z,0
2022-12-18T00:13:10.148Z,0
2022-12-18T00:13:41.547Z,0
2022-12-18T00:14:12.591Z,0
2022-12-18T00:14:45.225Z,0
2022-12-18T00:15:17.359Z,0
2022-12-18T00:15:49.534Z,0
2022-12-18T00:16:20.533Z,0
2022-12-18T00:16:53.329Z,0
2022-12-18T00:17:24.684Z,0
2022-12-18T00:17:57.221Z,0
2022-12-18T00:18:28.461Z,0
2022-12-18T00:19:01.575Z,0
2022-12-18T00:19:32.536Z,0
2022-12-18T00:20:05.575Z,0
2022-12-18T00:20:36.634Z,0
2022-12-18T00:21:09.298Z,0
2022-12-18T00:21:40.478Z,0
2022-12-18T00:22:13.471Z,0
2022-12-18T00:22:44.541Z,0
2022-12-18T00:23:17.319Z,0
2022-12-18T00:23:48.497Z,0
2022-12-18T00:24:21.292Z,0
2022-12-18T00:24:52.621Z,0
2022-12-18T00:25:25.487Z,0
2022-12-18T00:25:56.563Z,0
2022-12-18T00:26:29.347Z,0
2022-12-18T00:27:00.354Z,0
2022-12-18T00:27:33.643Z,0
2022-12-18T00:28:04.461Z,0
2022-12-18T00:28:37.301Z,0
2022-12-18T00:29:08.424Z,0
2022-12-18T00:29:41.346Z,0
2022-12-18T00:30:13.433Z,0
2022-12-18T00:30:45.272Z,0
2022-12-18T00:31:16.429Z,0
2022-12-18T00:31:49.309Z,0
2022-12-18T00:32:20.381Z,0
2022-12-18T00:32:53.382Z,0
2022-12-18T00:33:24.605Z,0
2022-12-18T00:33:57.591Z,0
2022-12-18T00:34:28.380Z,0
2022-12-18T00:35:01.831Z,0
2022-12-18T00:35:32.578Z,0
2022-12-18T00:36:05.291Z,0
2022-12-18T00:36:36.502Z,0
2022-12-18T00:37:09.302Z,0
2022-12-18T00:37:40.593Z,0
2022-12-18T00:38:13.237Z,0
2022-12-18T00:38:44.529Z,0
2022-12-18T00:39:17.293Z,0
2022-12-18T00:39:48.304Z,0
2022-12-18T00:40:21.483Z,0
2022-12-18T00:40:52.550Z,0
2022-12-18T00:41:25.153Z,0
2022-12-18T00:41:56.390Z,0
2022-12-18T00:42:29.498Z,0
2022-12-18T00:43:00.487Z,0
2022-12-18T00:43:33.420Z,0
2022-12-18T00:44:04.595Z,0
2022-12-18T00:44:37.320Z,0
2022-12-18T00:45:13.042Z,0
2022-12-18T00:45:41.716Z,0
2022-12-18T00:46:12.695Z,0
2022-12-18T00:46:45.493Z,0
2022-12-18T00:47:16.563Z,0
2022-12-18T00:47:49.387Z,0
2022-12-18T00:48:20.691Z,0
2022-12-18T00:48:53.218Z,0
2022-12-18T00:49:24.398Z,0
2022-12-18T00:49:57.364Z,0
2022-12-18T00:50:29.054Z,0
2022-12-18T00:51:01.092Z,0
2022-12-18T00:51:32.570Z,0
2022-12-18T00:52:05.625Z,0
2022-12-18T00:52:36.490Z,0
2022-12-18T00:53:09.223Z,0
2022-12-18T00:53:40.857Z,0
2022-12-18T00:54:13.421Z,0
2022-12-18T00:54:44.417Z,0
2022-12-18T00:55:17.773Z,0
2022-12-18T00:55:48.647Z,0
2022-12-18T00:56:21.093Z,0
2022-12-18T00:56:52.544Z,0
2022-12-18T00:57:25.567Z,0
2022-12-18T00:57:56.542Z,0
2022-12-18T00:58:29.150Z,0
2022-12-18T00:59:00.409Z,0
2022-12-18T00:59:33.326Z,0
2022-12-18T01:00:05.763Z,0
2022-12-18T01:00:37.480Z,0
2022-12-18T01:01:08.522Z,0
2022-12-18T01:01:41.555Z,0
2022-12-18T01:02:12.589Z,0
2022-12-18T01:02:45.340Z,0
2022-12-18T01:03:16.550Z,0
2022-12-18T01:03:49.292Z,0
2022-12-18T01:04:20.529Z,0
2022-12-18T01:04:53.548Z,0
2022-12-18T01:05:24.870Z,0
2022-12-18T01:05:57.237Z,0
2022-12-18T01:06:28.308Z,0
2022-12-18T01:07:01.300Z,0
2022-12-18T01:07:32.421Z,0
2022-12-18T01:08:05.457Z,0
2022-12-18T01:08:36.521Z,0
2022-12-18T01:09:09.329Z,0
2022-12-18T01:09:40.484Z,0
2022-12-18T01:10:13.656Z,0
2022-12-18T01:10:44.538Z,0
2022-12-18T01:11:17.262Z,0
2022-12-18T01:11:48.482Z,0
2022-12-18T01:12:21.338Z,0
2022-12-18T01:12:52.364Z,0
2022-12-18T01:13:25.275Z,0
2022-12-18T01:13:56.497Z,0
2022-12-18T01:14:29.234Z,0
2022-12-18T01:15:01.765Z,0
2022-12-18T01:15:33.436Z,0
2022-12-18T01:16:04.695Z,0
2022-12-18T01:16:37.348Z,0
2022-12-18T01:17:08.395Z,0
2022-12-18T01:17:41.610Z,0
2022-12-18T01:18:12.578Z,0
2022-12-18T01:18:45.153Z,0
2022-12-18T01:19:16.370Z,0
2022-12-18T01:19:49.365Z,0
2022-12-18T01:20:20.688Z,0
2022-12-18T01:20:53.273Z,0
2022-12-18T01:21:24.512Z,0
2022-12-18T01:21:57.403Z,0
2022-12-18T01:22:28.455Z,0
2022-12-18T01:23:01.438Z,0
2022-12-18T01:23:32.556Z,0
2022-12-18T01:24:05.338Z,0
2022-12-18T01:24:36.446Z,0
2022-12-18T01:25:09.521Z,0
2022-12-18T01:25:40.514Z,0
2022-12-18T01:26:13.335Z,0
2022-12-18T01:26:44.538Z,0
2022-12-18T01:27:17.439Z,0
2022-12-18T01:27:48.592Z,0
2022-12-18T01:28:21.352Z,0
2022-12-18T01:28:52.524Z,0
2022-12-18T01:29:25.496Z,0
2022-12-18T01:29:56.407Z,0
2022-12-18T01:30:30.577Z,0
2022-12-18T01:31:00.416Z,0
2022-12-18T01:31:33.409Z,0
2022-12-18T01:32:04.532Z,0
2022-12-18T01:32:37.585Z,0
2022-12-18T01:33:08.678Z,0
2022-12-18T01:33:41.683Z,0
2022-12-18T01:34:12.554Z,0
2022-12-18T01:34:45.431Z,0
2022-12-18T01:35:16.682Z,0
2022-12-18T01:35:49.274Z,0
2022-12-18T01:36:20.420Z,0
2022-12-18T01:36:53.314Z,0
2022-12-18T01:37:24.450Z,0
2022-12-18T01:37:57.476Z,0
2022-12-18T01:38:28.517Z,0
2022-12-18T01:39:01.235Z,0
2022-12-18T01:39:32.521Z,0
2022-12-18T01:40:05.527Z,0
2022-12-18T01:40:36.599Z,0
2022-12-18T01:41:09.288Z,0
2022-12-18T01:41:40.558Z,0
2022-12-18T01:42:13.336Z,0
2022-12-18T01:42:44.389Z,0
2022-12-18T01:43:17.434Z,0
2022-12-18T01:43:48.496Z,0
2022-12-18T01:44:21.319Z,0
2022-12-18T01:44:52.339Z,0
2022-12-18T01:45:26.675Z,0
2022-12-18T01:45:56.810Z,0
2022-12-18T01:46:29.408Z,0
2022-12-18T01:47:00.499Z,0
2022-12-18T01:47:33.409Z,0
2022-12-18T01:48:04.550Z,0
2022-12-18T01:48:37.447Z,0
2022-12-18T01:49:08.540Z,0
2022-12-18T01:49:41.437Z,0
2022-12-18T01:50:12.720Z,0
2022-12-18T01:50:45.463Z,0
2022-12-18T01:51:16.494Z,0
2022-12-18T01:51:49.477Z,0
2022-12-18T01:52:20.447Z,0
2022-12-18T01:52:53.474Z,0
2022-12-18T01:53:24.494Z,0
2022-12-18T01:53:57.269Z,0
2022-12-18T01:54:28.488Z,0
2022-12-18T01:55:01.765Z,0
2022-12-18T01:55:32.582Z,0
2022-12-18T01:56:05.324Z,0
2022-12-18T01:56:36.469Z,0
2022-12-18T01:57:09.404Z,0
2022-12-18T01:57:40.387Z,0
2022-12-18T01:58:13.141Z,0
2022-12-18T01:58:44.459Z,0
2022-12-18T01:59:17.251Z,0
2022-12-18T01:59:48.478Z,0
2022-12-18T02:00:22.499Z,0
2022-12-18T02:00:52.603Z,0
2022-12-18T02:01:25.484Z,0
2022-12-18T02:01:56.702Z,0
2022-12-18T02:02:29.676Z,0
2022-12-18T02:03:00.445Z,0
2022-12-18T02:03:33.283Z,0
2022-12-18T02:04:04.555Z,0
2022-12-18T02:04:37.522Z,0
2022-12-18T02:05:08.673Z,0
2022-12-18T02:05:41.462Z,0
2022-12-18T02:06:12.413Z,0
2022-12-18T02:06:45.310Z,0
2022-12-18T02:07:16.442Z,0
2022-12-18T02:07:49.506Z,0
2022-12-18T02:08:20.549Z,0
2022-12-18T02:08:53.355Z,0
2022-12-18T02:09:24.528Z,0
2022-12-18T02:09:57.308Z,0
2022-12-18T02:10:28.727Z,0
2022-12-18T02:11:01.288Z,0
2022-12-18T02:11:32.529Z,0
2022-12-18T02:12:05.294Z,0
2022-12-18T02:12:36.470Z,0
2022-12-18T02:13:09.223Z,0
2022-12-18T02:13:40.823Z,0
2022-12-18T02:14:13.352Z,0
2022-12-18T02:14:44.485Z,0
2022-12-18T02:15:18.407Z,0
2022-12-18T02:15:48.338Z,0
2022-12-18T02:16:21.275Z,0
2022-12-18T02:16:52.530Z,0
2022-12-18T02:17:25.493Z,0
2022-12-18T02:17:56.481Z,0
2022-12-18T02:18:29.363Z,0
2022-12-18T02:19:00.494Z,0
2022-12-18T02:19:33.438Z,0
2022-12-18T02:20:04.647Z,0
2022-12-18T02:20:37.441Z,0
2022-12-18T02:21:08.522Z,0
2022-12-18T02:21:41.216Z,0
2022-12-18T02:22:12.462Z,0
2022-12-18T02:22:45.337Z,0
2022-12-18T02:23:16.530Z,0
2022-12-18T02:23:49.188Z,0
2022-12-18T02:24:20.402Z,0
2022-12-18T02:24:53.601Z,0
2022-12-18T02:25:24.864Z,0
2022-12-18T02:25:57.287Z,0
2022-12-18T02:26:28.729Z,0
2022-12-18T02:27:01.529Z,0
2022-12-18T02:27:32.770Z,0
2022-12-18T02:28:05.630Z,0
2022-12-18T02:28:36.641Z,0
2022-12-18T02:29:09.247Z,0
2022-12-18T02:29:40.478Z,0
2022-12-18T02:30:14.252Z,0
2022-12-18T02:30:44.656Z,0
2022-12-18T02:31:17.331Z,0
2022-12-18T02:31:48.512Z,0
2022-12-18T02:32:24.371Z,0
2022-12-18T02:32:52.439Z,0
2022-12-18T02:33:25.389Z,0
2022-12-18T02:33:56.445Z,0
2022-12-18T02:34:29.533Z,0
2022-12-18T02:35:00.880Z,0
2022-12-18T02:35:33.568Z,0
2022-12-18T02:36:04.642Z,0
2022-12-18T02:36:37.417Z,0
2022-12-18T02:37:08.626Z,.32
2022-12-18T02:37:41.530Z,.32
2022-12-18T02:38:12.479Z,0
2022-12-18T02:38:45.277Z,0
2022-12-18T02:39:16.463Z,.32
2022-12-18T02:39:49.519Z,.32
2022-12-18T02:40:20.710Z,.32
2022-12-18T02:40:36.728Z,.32
2022-12-18T02:41:08.562Z,.32
2022-12-18T02:41:40.496Z,.32
2022-12-18T02:42:12.678Z,.32
2022-12-18T02:42:44.702Z,.32
2022-12-18T02:43:16.559Z,.64
2022-12-18T02:43:48.598Z,.64
2022-12-18T02:44:20.632Z,.32
2022-12-18T02:44:52.509Z,.32
2022-12-18T02:45:26.819Z,.32
2022-12-18T02:45:56.778Z,.32
2022-12-18T02:46:29.233Z,.32
2022-12-18T02:47:00.494Z,.32
2022-12-18T02:47:33.528Z,.64
2022-12-18T02:48:04.387Z,.64
2022-12-18T02:48:37.518Z,.64
2022-12-18T02:49:08.519Z,.32
2022-12-18T02:49:41.575Z,.32
2022-12-18T02:50:12.798Z,.64
2022-12-18T02:50:45.202Z,.64
2022-12-18T02:51:16.487Z,.64
2022-12-18T02:51:49.227Z,1.12
2022-12-18T02:52:20.443Z,1.12
2022-12-18T02:52:53.589Z,1.12
2022-12-18T02:53:24.650Z,.64
2022-12-18T02:53:57.399Z,1.12
2022-12-18T02:54:28.611Z,1.12
2022-12-18T02:55:01.834Z,1.12
2022-12-18T02:55:32.450Z,1.12
2022-12-18T02:56:05.458Z,1.12
2022-12-18T02:56:36.517Z,1.12
2022-12-18T02:57:09.334Z,.64
2022-12-18T02:57:40.371Z,.64
2022-12-18T02:58:13.453Z,.64
2022-12-18T02:58:44.512Z,.64
2022-12-18T02:59:17.376Z,.64
2022-12-18T02:59:48.481Z,.64
2022-12-18T03:00:22.554Z,.32
2022-12-18T03:00:52.527Z,.32
2022-12-18T03:01:26.489Z,.32
2022-12-18T03:01:56.795Z,.32
2022-12-18T03:02:29.834Z,.32
2022-12-18T03:03:00.516Z,.32
2022-12-18T03:03:33.385Z,.32
2022-12-18T03:04:04.550Z,0
2022-12-18T03:04:37.358Z,0
2022-12-18T03:05:08.689Z,0
2022-12-18T03:05:41.248Z,0
2022-12-18T03:06:12.547Z,0
2022-12-18T03:06:45.204Z,0
2022-12-18T03:07:16.590Z,0
2022-12-18T03:07:49.602Z,0
2022-12-18T03:08:20.462Z,0
2022-12-18T03:08:53.335Z,0
2022-12-18T03:09:24.516Z,0
2022-12-18T03:09:58.064Z,0
2022-12-18T03:10:28.744Z,0
2022-12-18T03:11:01.230Z,0
2022-12-18T03:11:32.532Z,0
2022-12-18T03:12:06.236Z,0
2022-12-18T03:12:36.606Z,0
2022-12-18T03:13:09.215Z,0
2022-12-18T03:13:40.810Z,0
2022-12-18T03:14:13.216Z,0
2022-12-18T03:14:44.555Z,0
2022-12-18T03:15:18.267Z,0
2022-12-18T03:15:48.597Z,0
2022-12-18T03:16:04.697Z,0
2022-12-18T03:16:36.642Z,0
2022-12-18T03:17:08.540Z,0
2022-12-18T03:17:40.725Z,0
2022-12-18T03:18:12.561Z,0
2022-12-18T03:18:45.267Z,0
2022-12-18T03:19:17.064Z,0
2022-12-18T03:19:49.229Z,0
2022-12-18T03:20:20.750Z,0
2022-12-18T03:20:53.287Z,0
2022-12-18T03:21:24.445Z,0
2022-12-18T03:21:57.217Z,0
2022-12-18T03:22:28.416Z,0
2022-12-18T03:23:01.288Z,0
2022-12-18T03:23:32.449Z,0
2022-12-18T03:24:05.256Z,0
2022-12-18T03:24:36.614Z,0
2022-12-18T03:25:09.464Z,0
2022-12-18T03:25:40.597Z,0
2022-12-18T03:26:13.412Z,0
2022-12-18T03:26:44.448Z,0
2022-12-18T03:27:17.396Z,0
2022-12-18T03:27:48.590Z,0
2022-12-18T03:28:21.258Z,0
2022-12-18T03:28:52.477Z,.32
2022-12-18T03:29:25.293Z,.32
2022-12-18T03:29:56.624Z,.32
2022-12-18T03:30:30.370Z,.32
2022-12-18T03:31:00.469Z,.32
2022-12-18T03:31:33.271Z,.32
2022-12-18T03:32:04.612Z,.32
2022-12-18T03:32:37.597Z,.32
2022-12-18T03:33:08.449Z,.32
2022-12-18T03:33:41.971Z,.32
2022-12-18T03:34:12.400Z,.32
2022-12-18T03:34:45.335Z,.32
2022-12-18T03:35:16.823Z,.32
2022-12-18T03:35:49.198Z,.32
2022-12-18T03:36:20.541Z,.32
2022-12-18T03:36:53.336Z,0
2022-12-18T03:37:24.358Z,0
2022-12-18T03:37:57.569Z,0
2022-12-18T03:38:28.546Z,0
2022-12-18T03:39:01.304Z,0
2022-12-18T03:39:32.508Z,0
2022-12-18T03:40:06.331Z,0
2022-12-18T03:40:36.480Z,0
2022-12-18T03:41:09.088Z,0
2022-12-18T03:41:40.626Z,0
2022-12-18T03:42:13.391Z,0
2022-12-18T03:42:44.539Z,0
2022-12-18T03:43:17.298Z,0
2022-12-18T03:43:48.449Z,0
2022-12-18T03:44:21.374Z,0
2022-12-18T03:44:52.520Z,0
2022-12-18T03:45:26.595Z,0
2022-12-18T03:45:56.784Z,0
2022-12-18T03:46:29.134Z,0
2022-12-18T03:47:00.485Z,0
2022-12-18T03:47:33.344Z,0
2022-12-18T03:48:04.650Z,0
2022-12-18T03:48:37.257Z,0
2022-12-18T03:49:08.581Z,0
2022-12-18T03:49:41.409Z,0
2022-12-18T03:50:13.196Z,0
2022-12-18T03:50:45.211Z,0
2022-12-18T03:51:16.571Z,0
2022-12-18T03:51:49.441Z,0
2022-12-18T03:52:20.510Z,0
2022-12-18T03:52:53.327Z,0
2022-12-18T03:53:24.631Z,0
2022-12-18T03:53:57.177Z,0
2022-12-18T03:54:28.487Z,0
2022-12-18T03:55:01.714Z,0
2022-12-18T03:55:32.568Z,0
2022-12-18T03:56:05.380Z,0
2022-12-18T03:56:36.525Z,0
2022-12-18T03:57:09.487Z,0
2022-12-18T03:57:40.465Z,0
2022-12-18T03:58:13.200Z,0
2022-12-18T03:58:44.620Z,0
2022-12-18T03:59:17.440Z,0
2022-12-18T03:59:48.647Z,0
2022-12-18T04:00:06.123Z,0
2022-12-18T04:00:36.540Z,0
2022-12-18T04:01:08.697Z,0
2022-12-18T04:01:40.715Z,0
2022-12-18T04:02:12.666Z,0
2022-12-18T04:02:45.499Z,.64
2022-12-18T04:03:16.744Z,.64
2022-12-18T04:03:49.545Z,.64
2022-12-18T04:04:20.411Z,.64
2022-12-18T04:04:53.370Z,.32
2022-12-18T04:05:24.925Z,.64
2022-12-18T04:05:57.140Z,.64
2022-12-18T04:06:28.409Z,1.12
2022-12-18T04:07:01.427Z,1.12
2022-12-18T04:07:32.425Z,1.12
2022-12-18T04:08:05.450Z,1.12
2022-12-18T04:08:36.550Z,1.12
2022-12-18T04:09:09.388Z,1.12
2022-12-18T04:09:40.526Z,1.12
2022-12-18T04:10:13.518Z,1.12
2022-12-18T04:10:44.620Z,1.12
2022-12-18T04:11:17.236Z,1.12
2022-12-18T04:11:48.491Z,.64
2022-12-18T04:12:21.624Z,.64
2022-12-18T04:12:52.526Z,.64
2022-12-18T04:13:25.344Z,.32
2022-12-18T04:13:56.565Z,.32
2022-12-18T04:14:29.452Z,.64
2022-12-18T04:15:01.789Z,.64
2022-12-18T04:15:33.585Z,.32
2022-12-18T04:16:04.692Z,.32
2022-12-18T04:16:37.438Z,0
2022-12-18T04:17:08.469Z,0
2022-12-18T04:17:41.503Z,0
2022-12-18T04:18:12.726Z,0
2022-12-18T04:18:45.389Z,0
2022-12-18T04:19:16.463Z,0
2022-12-18T04:19:49.360Z,0
2022-12-18T04:20:20.829Z,0
2022-12-18T04:20:53.414Z,0
2022-12-18T04:21:24.662Z,0
2022-12-18T04:21:57.613Z,.32
2022-12-18T04:22:28.456Z,0
2022-12-18T04:23:01.354Z,0
2022-12-18T04:23:32.672Z,.32
2022-12-18T04:24:05.398Z,.32
2022-12-18T04:24:36.591Z,.32
2022-12-18T04:25:09.819Z,.32
2022-12-18T04:25:40.463Z,.32
2022-12-18T04:26:13.490Z,.32
2022-12-18T04:26:44.592Z,.32
2022-12-18T04:27:17.210Z,.32
2022-12-18T04:27:48.486Z,.32
2022-12-18T04:28:21.481Z,.32
2022-12-18T04:28:52.493Z,.32
2022-12-18T04:29:25.395Z,.32
2022-12-18T04:29:56.618Z,.32
2022-12-18T04:30:30.661Z,.32
2022-12-18T04:31:00.538Z,.32
2022-12-18T04:31:33.466Z,.32
2022-12-18T04:32:04.408Z,.32
2022-12-18T04:32:37.579Z,.32
2022-12-18T04:33:08.563Z,.32
2022-12-18T04:33:41.863Z,0
2022-12-18T04:34:12.699Z,0
2022-12-18T04:34:45.271Z,0
2022-12-18T04:35:16.744Z,.32
2022-12-18T04:35:49.472Z,.32
2022-12-18T04:36:20.479Z,.64
2022-12-18T04:36:53.303Z,.64
2022-12-18T04:37:24.617Z,1.12
2022-12-18T04:37:57.299Z,1.12
2022-12-18T04:38:28.458Z,1.12
2022-12-18T04:39:01.317Z,1.12
2022-12-18T04:39:32.524Z,1.44
2022-12-18T04:40:05.379Z,1.44
2022-12-18T04:40:36.579Z,1.44
2022-12-18T04:41:10.330Z,1.44
2022-12-18T04:41:40.474Z,1.44
2022-12-18T04:42:13.424Z,1.44
2022-12-18T04:42:44.735Z,1.44
2022-12-18T04:43:17.511Z,1.44
2022-12-18T04:43:48.568Z,1.44
2022-12-18T04:44:21.324Z,1.44
2022-12-18T04:44:52.617Z,1.44
2022-12-18T04:45:27.388Z,1.44
2022-12-18T04:45:56.704Z,1.44
2022-12-18T04:46:29.646Z,1.44
2022-12-18T04:47:00.549Z,1.44
2022-12-18T04:47:33.677Z,1.44
2022-12-18T04:48:04.651Z,1.44
2022-12-18T04:48:37.502Z,1.44
2022-12-18T04:49:08.637Z,1.44
2022-12-18T04:49:44.164Z,1.44
2022-12-18T04:50:12.969Z,1.44
2022-12-18T04:50:45.195Z,1.44
2022-12-18T04:51:16.569Z,1.44
2022-12-18T04:51:49.447Z,1.44
2022-12-18T04:52:20.541Z,1.44
2022-12-18T04:52:53.285Z,1.44
2022-12-18T04:53:24.558Z,1.44
2022-12-18T04:53:57.423Z,1.44
2022-12-18T04:54:28.449Z,1.44
2022-12-18T04:55:01.720Z,1.44
2022-12-18T04:55:32.556Z,1.44
2022-12-18T04:56:05.414Z,1.12
2022-12-18T04:56:36.463Z,1.12
2022-12-18T04:57:09.667Z,1.12
2022-12-18T04:57:40.573Z,1.12
2022-12-18T04:58:13.308Z,1.12
2022-12-18T04:58:44.533Z,1.12
2022-12-18T04:59:17.531Z,1.12
2022-12-18T04:59:48.687Z,.64
2022-12-18T05:00:22.846Z,.64
2022-12-18T05:00:52.555Z,.64
2022-12-18T05:01:31.000Z,.64
2022-12-18T05:01:56.663Z,.32
2022-12-18T05:02:29.495Z,0
2022-12-18T05:03:00.679Z,0
2022-12-18T05:03:33.343Z,0
2022-12-18T05:04:04.593Z,0
2022-12-18T05:04:37.477Z,0
2022-12-18T05:05:08.881Z,0
2022-12-18T05:05:44.501Z,0
2022-12-18T05:06:12.591Z,0
2022-12-18T05:06:45.445Z,0
2022-12-18T05:07:16.409Z,0
2022-12-18T05:07:49.463Z,0
2022-12-18T05:08:20.590Z,0
2022-12-18T05:08:53.533Z,0
2022-12-18T05:09:24.617Z,0
2022-12-18T05:09:57.319Z,0
2022-12-18T05:10:32.241Z,0
2022-12-18T05:11:01.497Z,0
2022-12-18T05:11:32.473Z,0
2022-12-18T05:12:05.414Z,0
2022-12-18T05:12:36.616Z,0
2022-12-18T05:13:09.431Z,0
2022-12-18T05:13:41.044Z,0
2022-12-18T05:14:13.445Z,0
2022-12-18T05:14:44.632Z,0
2022-12-18T05:15:18.576Z,0
2022-12-18T05:15:48.972Z,.32
2022-12-18T05:16:21.440Z,.32
2022-12-18T05:16:55.724Z,.32
2022-12-18T05:17:25.686Z,.32
2022-12-18T05:17:56.699Z,.32
2022-12-18T05:18:30.277Z,.64
2022-12-18T05:19:00.582Z,.64
2022-12-18T05:19:33.582Z,.64
2022-12-18T05:20:04.637Z,.64
2022-12-18T05:20:37.315Z,.64
2022-12-18T05:21:08.637Z,.64
2022-12-18T05:21:41.314Z,1.12
2022-12-18T05:22:12.670Z,1.12
2022-12-18T05:22:45.695Z,1.12
2022-12-18T05:23:16.445Z,1.12
2022-12-18T05:23:49.328Z,1.12
2022-12-18T05:24:20.539Z,1.12
2022-12-18T05:24:53.611Z,1.12
2022-12-18T05:25:24.915Z,1.12
2022-12-18T05:26:00.096Z,1.12
2022-12-18T05:26:28.614Z,1.12
2022-12-18T05:27:01.293Z,.32
2022-12-18T05:27:32.998Z,.32
2022-12-18T05:28:05.508Z,.32
2022-12-18T05:28:36.762Z,.32
2022-12-18T05:29:09.376Z,.32
2022-12-18T05:29:40.608Z,.32
2022-12-18T05:30:14.352Z,.32
2022-12-18T05:30:44.659Z,.32
2022-12-18T05:31:17.538Z,.32
2022-12-18T05:31:48.652Z,.32
2022-12-18T05:32:21.438Z,.32
2022-12-18T05:32:52.526Z,.32
2022-12-18T05:33:25.345Z,1.12
2022-12-18T05:33:56.679Z,1.12
2022-12-18T05:34:29.241Z,1.12
2022-12-18T05:35:00.900Z,1.44
2022-12-18T05:35:33.460Z,1.12
2022-12-18T05:36:04.514Z,1.12
2022-12-18T05:36:37.416Z,1.12
2022-12-18T05:37:08.545Z,1.12
2022-12-18T05:37:43.205Z,1.12
2022-12-18T05:38:12.363Z,1.12
2022-12-18T05:38:45.496Z,1.12
2022-12-18T05:39:16.611Z,1.44
2022-12-18T05:39:49.231Z,1.77
2022-12-18T05:40:20.990Z,1.77
2022-12-18T05:40:53.479Z,1.77
2022-12-18T05:41:24.539Z,1.77
2022-12-18T05:41:57.465Z,1.77
2022-12-18T05:42:28.627Z,1.77
2022-12-18T05:43:01.269Z,1.77
2022-12-18T05:43:32.627Z,2.09
2022-12-18T05:44:05.463Z,1.77
2022-12-18T05:44:36.579Z,2.09
2022-12-18T05:45:10.487Z,2.09
2022-12-18T05:45:40.700Z,2.09
2022-12-18T05:46:16.478Z,2.09
2022-12-18T05:46:44.497Z,2.09
2022-12-18T05:47:17.387Z,2.09
2022-12-18T05:47:48.531Z,2.09
2022-12-18T05:48:21.406Z,2.09
2022-12-18T05:48:52.468Z,2.09
2022-12-18T05:49:25.414Z,2.09
2022-12-18T05:49:56.635Z,2.09
2022-12-18T05:50:29.708Z,1.77
2022-12-18T05:51:00.633Z,1.77
2022-12-18T05:51:33.349Z,1.77
2022-12-18T05:52:04.594Z,1.77
2022-12-18T05:52:38.135Z,1.77
2022-12-18T05:53:08.739Z,1.77
2022-12-18T05:53:41.872Z,1.77
2022-12-18T05:54:12.534Z,1.77
2022-12-18T05:54:45.551Z,1.77
2022-12-18T05:55:16.888Z,1.77
2022-12-18T05:55:49.187Z,1.77
2022-12-18T05:56:20.539Z,1.77
2022-12-18T05:56:36.649Z,1.77
2022-12-18T05:57:08.445Z,1.44
2022-12-18T05:57:40.541Z,1.44
2022-12-18T05:58:12.548Z,1.44
2022-12-18T05:58:44.405Z,1.44
2022-12-18T05:59:17.192Z,1.44
2022-12-18T05:59:48.646Z,1.44
2022-12-18T06:00:25.347Z,1.44
2022-12-18T06:00:52.646Z,1.44
2022-12-18T06:01:25.344Z,1.44
2022-12-18T06:01:56.838Z,1.44
2022-12-18T06:02:29.550Z,1.44
2022-12-18T06:03:00.589Z,1.44
2022-12-18T06:03:34.012Z,1.12
2022-12-18T06:04:04.715Z,1.12
2022-12-18T06:04:37.443Z,1.12
2022-12-18T06:05:08.836Z,.32
2022-12-18T06:05:41.538Z,.32
2022-12-18T06:06:12.593Z,.32
2022-12-18T06:06:45.466Z,.32
2022-12-18T06:07:16.608Z,.32
2022-12-18T06:07:49.549Z,.32
2022-12-18T06:08:20.483Z,.32
2022-12-18T06:08:53.278Z,.32
2022-12-18T06:09:24.647Z,.32
2022-12-18T06:09:57.434Z,.32
2022-12-18T06:10:28.943Z,.32
2022-12-18T06:11:02.260Z,.32
2022-12-18T06:11:32.511Z,.32
2022-12-18T06:12:05.552Z,.32
2022-12-18T06:12:36.567Z,.32
2022-12-18T06:13:12.357Z,.32
2022-12-18T06:13:40.826Z,.32
2022-12-18T06:14:13.693Z,.32
2022-12-18T06:14:44.660Z,.32
2022-12-18T06:15:18.371Z,.64
2022-12-18T06:15:48.695Z,.64
2022-12-18T06:16:21.597Z,.64
2022-12-18T06:16:52.648Z,.64
2022-12-18T06:17:30.800Z,1.12
2022-12-18T06:17:56.549Z,1.12
2022-12-18T06:18:28.549Z,1.12
2022-12-18T06:19:01.510Z,1.12
2022-12-18T06:19:32.553Z,1.44
2022-12-18T06:20:05.527Z,1.44
2022-12-18T06:20:36.712Z,1.44
2022-12-18T06:21:09.449Z,1.77
2022-12-18T06:21:40.725Z,2.09
2022-12-18T06:22:13.623Z,2.09
2022-12-18T06:22:44.473Z,2.09
2022-12-18T06:23:17.396Z,2.09
2022-12-18T06:23:48.634Z,2.09
2022-12-18T06:24:22.394Z,2.09
2022-12-18T06:24:52.532Z,2.09
2022-12-18T06:25:25.798Z,2.89
2022-12-18T06:25:56.554Z,2.89
2022-12-18T06:26:29.346Z,2.89
2022-12-18T06:27:00.526Z,2.09
2022-12-18T06:27:33.639Z,2.09
2022-12-18T06:28:04.576Z,2.09
2022-12-18T06:28:37.479Z,2.09
2022-12-18T06:29:08.605Z,2.89
2022-12-18T06:29:42.349Z,2.09
2022-12-18T06:30:13.533Z,2.09
2022-12-18T06:30:45.644Z,2.09
2022-12-18T06:31:16.762Z,2.09
2022-12-18T06:31:50.600Z,2.09
2022-12-18T06:32:20.499Z,2.09
2022-12-18T06:32:56.583Z,2.09
2022-12-18T06:33:24.655Z,2.09
2022-12-18T06:33:58.319Z,2.09
2022-12-18T06:34:28.518Z,2.09
2022-12-18T06:35:01.871Z,1.77
2022-12-18T06:35:32.449Z,1.77
2022-12-18T06:36:06.184Z,1.77
2022-12-18T06:36:36.633Z,1.77
2022-12-18T06:37:09.696Z,2.09
2022-12-18T06:37:40.468Z,2.09
2022-12-18T06:38:13.299Z,2.09
2022-12-18T06:38:44.620Z,2.57
2022-12-18T06:39:17.436Z,2.09
2022-12-18T06:39:48.489Z,2.09
2022-12-18T06:40:21.718Z,2.09
2022-12-18T06:40:52.629Z,2.09
2022-12-18T06:41:26.322Z,2.09
2022-12-18T06:41:56.544Z,2.57
2022-12-18T06:42:29.692Z,2.57
2022-12-18T06:43:00.645Z,2.57
2022-12-18T06:43:33.424Z,2.57
2022-12-18T06:44:04.611Z,3.21
2022-12-18T06:44:40.635Z,3.21
2022-12-18T06:45:09.550Z,2.57
2022-12-18T06:45:41.725Z,2.57
2022-12-18T06:46:12.545Z,2.57
2022-12-18T06:46:45.331Z,2.09
2022-12-18T06:47:16.555Z,2.57
2022-12-18T06:47:49.394Z,2.09
2022-12-18T06:48:20.616Z,2.09
2022-12-18T06:48:54.295Z,2.09
2022-12-18T06:49:30.173Z,2.09
2022-12-18T06:49:58.543Z,2.57
2022-12-18T06:50:28.754Z,2.57
2022-12-18T06:51:01.392Z,2.57
2022-12-18T06:51:32.626Z,2.57
2022-12-18T06:52:05.250Z,2.57
2022-12-18T06:52:36.652Z,2.57
2022-12-18T06:53:09.593Z,2.09
2022-12-18T06:53:41.048Z,2.09
2022-12-18T06:54:15.306Z,2.09
2022-12-18T06:54:44.611Z,2.09
2022-12-18T06:55:17.769Z,2.09
2022-12-18T06:55:48.533Z,2.09
2022-12-18T06:56:09.450Z,2.09
2022-12-18T06:56:36.531Z,2.09
2022-12-18T06:57:08.594Z,2.09
2022-12-18T06:57:41.414Z,1.77
2022-12-18T06:58:12.599Z,2.09
2022-12-18T06:58:45.290Z,2.09
2022-12-18T06:59:16.644Z,2.09
2022-12-18T06:59:49.409Z,1.77
2022-12-18T07:00:21.614Z,1.44
2022-12-18T07:00:53.433Z,1.77
2022-12-18T07:01:24.800Z,1.77
2022-12-18T07:02:00.627Z,1.77
2022-12-18T07:02:28.668Z,1.77
2022-12-18T07:03:01.485Z,1.77
2022-12-18T07:03:32.668Z,1.77
2022-12-18T07:04:06.253Z,1.77
2022-12-18T07:04:36.601Z,1.77
2022-12-18T07:05:11.115Z,1.77
2022-12-18T07:05:40.759Z,1.77
2022-12-18T07:06:13.111Z,2.09
2022-12-18T07:06:44.643Z,1.77
2022-12-18T07:07:17.622Z,1.77
2022-12-18T07:07:48.570Z,2.09
2022-12-18T07:08:21.285Z,1.77
2022-12-18T07:08:52.671Z,1.77
2022-12-18T07:09:25.599Z,1.77
2022-12-18T07:09:56.679Z,1.77
2022-12-18T07:10:32.374Z,2.09
2022-12-18T07:11:01.762Z,2.09
2022-12-18T07:11:33.375Z,2.09
2022-12-18T07:12:04.639Z,2.09
2022-12-18T07:12:37.562Z,2.09
2022-12-18T07:13:08.941Z,2.09
2022-12-18T07:13:42.009Z,2.09
2022-12-18T07:14:12.543Z,2.09
2022-12-18T07:14:45.494Z,2.09
2022-12-18T07:15:17.706Z,2.57
2022-12-18T07:15:49.601Z,2.57
2022-12-18T07:16:24.306Z,2.57
2022-12-18T07:16:53.520Z,2.57
2022-12-18T07:17:24.890Z,2.57
2022-12-18T07:17:57.980Z,2.57
2022-12-18T07:18:28.932Z,2.57
2022-12-18T07:19:01.553Z,2.57
2022-12-18T07:19:32.906Z,2.57
2022-12-18T07:20:05.843Z,2.57
2022-12-18T07:20:36.845Z,2.89
2022-12-18T07:21:09.684Z,2.89
2022-12-18T07:21:40.890Z,2.89
2022-12-18T07:22:20.936Z,2.89
2022-12-18T07:22:44.779Z,2.89
2022-12-18T07:23:16.798Z,2.89
2022-12-18T07:23:49.394Z,2.57
2022-12-18T07:24:20.826Z,2.89
2022-12-18T07:24:53.584Z,2.89
2022-12-18T07:25:25.141Z,2.89
2022-12-18T07:25:58.651Z,2.89
2022-12-18T07:26:28.896Z,3.21
2022-12-18T07:27:01.716Z,3.54
2022-12-18T07:27:33.125Z,3.21
2022-12-18T07:28:05.690Z,3.54
2022-12-18T07:28:36.797Z,4.02
2022-12-18T07:29:09.693Z,4.02
2022-12-18T07:29:40.759Z,4.02
2022-12-18T07:30:14.698Z,4.02
2022-12-18T07:30:45.001Z,4.66